sensor_id;sensor_type;location;lat;lon;timestamp;temperature;humidity
16172;DHT22;8192;53.596;10.166;2022-11-15T00:02:11;4.80;99.90
16172;DHT22;8192;53.596;10.166;2022-11-15T00:04:39;5.20;99.90
16172;DHT22;8192;53.596;10.166;2022-11-15T00:07:06;4.60;99.90
16172;DHT22;8192;53.596;10.166;2022-11-15T00:09:34;4.50;99.90
16172;DHT22;8192;53.596;10.166;2022-11-15T00:12:02;4.60;99.90
16172;DHT22;8192;53.596;10.166;2022-11-15T00:14:34;4.60;99.90
16172;DHT22;8192;53.596;10.166;2022-11-15T00:17:01;4.70;99.90
16172;DHT22;8192;53.596;10.166;2022-11-15T00:19:32;4.70;99.90
16172;DHT22;8192;53.596;10.166;2022-11-15T00:21:59;4.80;99.90
16172;DHT22;8192;53.596;10.166;2022-11-15T00:24:27;4.70;99.90
16172;DHT22;8192;53.596;10.166;2022-11-15T00:26:55;4.60;99.90
16172;DHT22;8192;53.596;10.166;2022-11-15T00:29:22;4.70;99.90
16172;DHT22;8192;53.596;10.166;2022-11-15T00:31:51;4.60;99.90
16172;DHT22;8192;53.596;10.166;2022-11-15T00:34:19;4.50;99.90
16172;DHT22;8192;53.596;10.166;2022-11-15T00:36:47;4.50;99.90
16172;DHT22;8192;53.596;10.166;2022-11-15T00:39:16;4.40;99.90
16172;DHT22;8192;53.596;10.166;2022-11-15T00:41:43;4.30;99.90
16172;DHT22;8192;53.596;10.166;2022-11-15T00:44:10;4.40;99.90
16172;DHT22;8192;53.596;10.166;2022-11-15T00:46:38;4.30;99.90
16172;DHT22;8192;53.596;10.166;2022-11-15T00:49:07;4.40;99.90
16172;DHT22;8192;53.596;10.166;2022-11-15T00:51:37;4.30;99.90
16172;DHT22;8192;53.596;10.166;2022-11-15T00:54:05;4.50;99.90
16172;DHT22;8192;53.596;10.166;2022-11-15T00:56:34;4.60;99.90
16172;DHT22;8192;53.596;10.166;2022-11-15T00:59:02;4.50;99.90
16172;DHT22;8192;53.596;10.166;2022-11-15T01:01:29;4.50;99.90
16172;DHT22;8192;53.596;10.166;2022-11-15T01:03:57;4.50;99.90
16172;DHT22;8192;53.596;10.166;2022-11-15T01:06:26;4.50;99.90
16172;DHT22;8192;53.596;10.166;2022-11-15T01:08:53;4.40;99.90
16172;DHT22;8192;53.596;10.166;2022-11-15T01:11:20;4.20;99.90
16172;DHT22;8192;53.596;10.166;2022-11-15T01:13:47;4.10;99.90
16172;DHT22;8192;53.596;10.166;2022-11-15T01:16:16;4.20;99.90
16172;DHT22;8192;53.596;10.166;2022-11-15T01:18:45;4.30;99.90
16172;DHT22;8192;53.596;10.166;2022-11-15T01:21:15;4.40;99.90
16172;DHT22;8192;53.596;10.166;2022-11-15T01:23:44;4.40;99.90
16172;DHT22;8192;53.596;10.166;2022-11-15T01:26:15;4.30;99.90
16172;DHT22;8192;53.596;10.166;2022-11-15T01:28:43;4.40;99.90
16172;DHT22;8192;53.596;10.166;2022-11-15T01:31:13;4.40;99.90
16172;DHT22;8192;53.596;10.166;2022-11-15T01:33:40;4.40;99.90
16172;DHT22;8192;53.596;10.166;2022-11-15T01:36:11;4.50;99.90
16172;DHT22;8192;53.596;10.166;2022-11-15T01:38:44;4.50;99.90
16172;DHT22;8192;53.596;10.166;2022-11-15T01:41:16;4.40;99.90
16172;DHT22;8192;53.596;10.166;2022-11-15T01:43:44;4.40;99.90
16172;DHT22;8192;53.596;10.166;2022-11-15T01:46:27;4.40;99.90
16172;DHT22;8192;53.596;10.166;2022-11-15T01:48:58;4.20;99.90
16172;DHT22;8192;53.596;10.166;2022-11-15T01:51:29;4.30;99.90
16172;DHT22;8192;53.596;10.166;2022-11-15T01:54:06;4.30;99.90
16172;DHT22;8192;53.596;10.166;2022-11-15T01:56:38;4.30;99.90
16172;DHT22;8192;53.596;10.166;2022-11-15T01:59:10;4.40;99.90
16172;DHT22;8192;53.596;10.166;2022-11-15T02:01:38;4.40;99.90
16172;DHT22;8192;53.596;10.166;2022-11-15T02:04:10;4.40;99.90
16172;DHT22;8192;53.596;10.166;2022-11-15T02:06:39;4.40;99.90
16172;DHT22;8192;53.596;10.166;2022-11-15T02:09:10;4.40;99.90
16172;DHT22;8192;53.596;10.166;2022-11-15T02:11:40;4.40;99.90
16172;DHT22;8192;53.596;10.166;2022-11-15T02:14:08;4.30;99.90
16172;DHT22;8192;53.596;10.166;2022-11-15T02:16:46;4.30;99.90
16172;DHT22;8192;53.596;10.166;2022-11-15T02:26:21;4.20;99.90
16172;DHT22;8192;53.596;10.166;2022-11-15T02:28:59;4.30;99.90
16172;DHT22;8192;53.596;10.166;2022-11-15T02:31:36;4.30;99.90
16172;DHT22;8192;53.596;10.166;2022-11-15T02:34:14;4.30;99.90
16172;DHT22;8192;53.596;10.166;2022-11-15T02:36:53;4.20;99.90
16172;DHT22;8192;53.596;10.166;2022-11-15T02:39:30;4.10;99.90
16172;DHT22;8192;53.596;10.166;2022-11-15T02:42:04;4.20;99.90
16172;DHT22;8192;53.596;10.166;2022-11-15T02:44:56;4.10;99.90
16172;DHT22;8192;53.596;10.166;2022-11-15T02:47:24;4.30;99.90
16172;DHT22;8192;53.596;10.166;2022-11-15T02:49:58;4.20;99.90
16172;DHT22;8192;53.596;10.166;2022-11-15T02:52:25;4.20;99.90
16172;DHT22;8192;53.596;10.166;2022-11-15T02:54:54;4.20;99.90
16172;DHT22;8192;53.596;10.166;2022-11-15T02:57:33;4.10;99.90
16172;DHT22;8192;53.596;10.166;2022-11-15T03:00:19;4.00;99.90
16172;DHT22;8192;53.596;10.166;2022-11-15T03:03:16;4.10;99.90
16172;DHT22;8192;53.596;10.166;2022-11-15T03:05:53;4.00;99.90
16172;DHT22;8192;53.596;10.166;2022-11-15T03:08:31;4.00;99.90
16172;DHT22;8192;53.596;10.166;2022-11-15T03:11:06;4.10;99.90
16172;DHT22;8192;53.596;10.166;2022-11-15T03:13:39;4.10;99.90
16172;DHT22;8192;53.596;10.166;2022-11-15T03:16:16;4.10;99.90
16172;DHT22;8192;53.596;10.166;2022-11-15T03:18:51;4.20;99.90
16172;DHT22;8192;53.596;10.166;2022-11-15T03:21:20;4.10;99.90
16172;DHT22;8192;53.596;10.166;2022-11-15T03:23:49;4.00;99.90
16172;DHT22;8192;53.596;10.166;2022-11-15T03:26:19;4.10;99.90
16172;DHT22;8192;53.596;10.166;2022-11-15T03:28:52;4.10;99.90
16172;DHT22;8192;53.596;10.166;2022-11-15T03:31:23;4.00;99.90
16172;DHT22;8192;53.596;10.166;2022-11-15T03:34:15;3.90;99.90
16172;DHT22;8192;53.596;10.166;2022-11-15T03:36:46;3.80;99.90
16172;DHT22;8192;53.596;10.166;2022-11-15T03:39:14;3.90;99.90
16172;DHT22;8192;53.596;10.166;2022-11-15T03:41:49;3.90;99.90
16172;DHT22;8192;53.596;10.166;2022-11-15T03:44:32;3.80;99.90
16172;DHT22;8192;53.596;10.166;2022-11-15T03:47:06;3.70;99.90
16172;DHT22;8192;53.596;10.166;2022-11-15T03:49:38;3.70;99.90
16172;DHT22;8192;53.596;10.166;2022-11-15T03:52:09;4.00;99.90
16172;DHT22;8192;53.596;10.166;2022-11-15T03:54:47;4.10;99.90
16172;DHT22;8192;53.596;10.166;2022-11-15T03:57:15;4.10;99.90
16172;DHT22;8192;53.596;10.166;2022-11-15T03:59:42;3.80;99.90
16172;DHT22;8192;53.596;10.166;2022-11-15T04:02:09;3.80;99.90
16172;DHT22;8192;53.596;10.166;2022-11-15T04:04:39;3.70;99.90
16172;DHT22;8192;53.596;10.166;2022-11-15T04:07:06;3.70;99.90
16172;DHT22;8192;53.596;10.166;2022-11-15T04:09:37;3.80;99.90
16172;DHT22;8192;53.596;10.166;2022-11-15T04:12:25;3.80;99.90
16172;DHT22;8192;53.596;10.166;2022-11-15T04:14:58;3.70;99.90
16172;DHT22;8192;53.596;10.166;2022-11-15T04:17:40;3.60;99.90
16172;DHT22;8192;53.596;10.166;2022-11-15T04:20:15;3.50;99.90
16172;DHT22;8192;53.596;10.166;2022-11-15T04:23:14;3.40;99.90
16172;DHT22;8192;53.596;10.166;2022-11-15T04:26:01;3.30;99.90
16172;DHT22;8192;53.596;10.166;2022-11-15T04:28:36;3.20;99.90
16172;DHT22;8192;53.596;10.166;2022-11-15T04:31:24;3.40;99.90
16172;DHT22;8192;53.596;10.166;2022-11-15T04:33:51;3.40;99.90
16172;DHT22;8192;53.596;10.166;2022-11-15T04:36:21;3.50;99.90
16172;DHT22;8192;53.596;10.166;2022-11-15T04:39:06;3.60;99.90
16172;DHT22;8192;53.596;10.166;2022-11-15T04:41:34;3.60;99.90
16172;DHT22;8192;53.596;10.166;2022-11-15T04:44:02;3.70;99.90
16172;DHT22;8192;53.596;10.166;2022-11-15T04:46:29;3.60;99.90
16172;DHT22;8192;53.596;10.166;2022-11-15T04:48:57;3.70;99.90
16172;DHT22;8192;53.596;10.166;2022-11-15T04:51:26;3.90;99.90
16172;DHT22;8192;53.596;10.166;2022-11-15T04:53:56;4.10;99.90
16172;DHT22;8192;53.596;10.166;2022-11-15T04:56:24;4.10;99.90
16172;DHT22;8192;53.596;10.166;2022-11-15T04:58:54;4.20;99.90
16172;DHT22;8192;53.596;10.166;2022-11-15T05:01:21;4.30;99.90
16172;DHT22;8192;53.596;10.166;2022-11-15T05:03:48;4.40;99.90
16172;DHT22;8192;53.596;10.166;2022-11-15T05:06:51;4.40;99.90
16172;DHT22;8192;53.596;10.166;2022-11-15T05:09:40;4.50;99.90
16172;DHT22;8192;53.596;10.166;2022-11-15T05:12:08;4.50;99.90
16172;DHT22;8192;53.596;10.166;2022-11-15T05:14:36;4.60;99.90
16172;DHT22;8192;53.596;10.166;2022-11-15T05:17:05;4.50;99.90
16172;DHT22;8192;53.596;10.166;2022-11-15T05:19:33;4.60;99.90
16172;DHT22;8192;53.596;10.166;2022-11-15T05:22:25;4.50;99.90
16172;DHT22;8192;53.596;10.166;2022-11-15T05:24:54;4.60;99.90
16172;DHT22;8192;53.596;10.166;2022-11-15T05:27:21;4.70;99.90
16172;DHT22;8192;53.596;10.166;2022-11-15T05:29:49;4.70;99.90
16172;DHT22;8192;53.596;10.166;2022-11-15T05:32:16;4.70;99.90
16172;DHT22;8192;53.596;10.166;2022-11-15T05:34:45;4.80;99.90
16172;DHT22;8192;53.596;10.166;2022-11-15T05:37:13;4.70;99.90
16172;DHT22;8192;53.596;10.166;2022-11-15T05:39:53;4.70;99.90
16172;DHT22;8192;53.596;10.166;2022-11-15T05:42:20;4.70;99.90
16172;DHT22;8192;53.596;10.166;2022-11-15T05:44:48;4.80;99.90
16172;DHT22;8192;53.596;10.166;2022-11-15T05:47:19;4.80;99.90
16172;DHT22;8192;53.596;10.166;2022-11-15T05:49:48;4.90;99.90
16172;DHT22;8192;53.596;10.166;2022-11-15T05:52:32;4.90;99.90
16172;DHT22;8192;53.596;10.166;2022-11-15T05:58:01;5.00;99.90
16172;DHT22;8192;53.596;10.166;2022-11-15T06:00:42;5.10;99.90
16172;DHT22;8192;53.596;10.166;2022-11-15T06:03:23;5.10;99.90
16172;DHT22;8192;53.596;10.166;2022-11-15T06:05:58;5.10;99.90
16172;DHT22;8192;53.596;10.166;2022-11-15T06:08:26;5.10;99.90
16172;DHT22;8192;53.596;10.166;2022-11-15T06:10:53;5.10;99.90
16172;DHT22;8192;53.596;10.166;2022-11-15T06:16:04;5.20;99.90
16172;DHT22;8192;53.596;10.166;2022-11-15T06:18:34;5.20;99.90
16172;DHT22;8192;53.596;10.166;2022-11-15T06:21:01;5.10;99.90
16172;DHT22;8192;53.596;10.166;2022-11-15T06:23:32;5.20;99.90
16172;DHT22;8192;53.596;10.166;2022-11-15T06:26:00;5.20;99.90
16172;DHT22;8192;53.596;10.166;2022-11-15T06:28:32;5.20;99.90
16172;DHT22;8192;53.596;10.166;2022-11-15T06:31:03;5.20;99.90
16172;DHT22;8192;53.596;10.166;2022-11-15T06:33:30;5.30;99.90
16172;DHT22;8192;53.596;10.166;2022-11-15T06:36:01;5.30;99.90
16172;DHT22;8192;53.596;10.166;2022-11-15T06:38:29;5.30;99.90
16172;DHT22;8192;53.596;10.166;2022-11-15T06:41:01;5.30;99.90
16172;DHT22;8192;53.596;10.166;2022-11-15T06:46:10;5.40;99.90
16172;DHT22;8192;53.596;10.166;2022-11-15T06:48:38;5.40;99.90
16172;DHT22;8192;53.596;10.166;2022-11-15T06:51:05;5.40;99.90
16172;DHT22;8192;53.596;10.166;2022-11-15T06:53:34;5.40;99.90
16172;DHT22;8192;53.596;10.166;2022-11-15T06:56:02;5.40;99.90
16172;DHT22;8192;53.596;10.166;2022-11-15T06:58:35;5.40;99.90
16172;DHT22;8192;53.596;10.166;2022-11-15T07:01:04;5.40;99.90
16172;DHT22;8192;53.596;10.166;2022-11-15T07:03:33;5.40;99.90
16172;DHT22;8192;53.596;10.166;2022-11-15T07:09:23;5.50;99.90
16172;DHT22;8192;53.596;10.166;2022-11-15T07:11:51;5.50;99.90
16172;DHT22;8192;53.596;10.166;2022-11-15T07:16:47;5.60;99.90
16172;DHT22;8192;53.596;10.166;2022-11-15T07:21:46;5.70;99.90
16172;DHT22;8192;53.596;10.166;2022-11-15T07:24:14;5.80;99.90
16172;DHT22;8192;53.596;10.166;2022-11-15T07:29:47;5.90;99.90
16172;DHT22;8192;53.596;10.166;2022-11-15T07:32:37;5.90;99.90
16172;DHT22;8192;53.596;10.166;2022-11-15T07:35:05;6.00;99.90
16172;DHT22;8192;53.596;10.166;2022-11-15T07:37:32;6.00;99.90
16172;DHT22;8192;53.596;10.166;2022-11-15T07:39:59;6.10;99.90
16172;DHT22;8192;53.596;10.166;2022-11-15T07:42:30;6.10;99.90
16172;DHT22;8192;53.596;10.166;2022-11-15T07:45:17;6.10;99.90
16172;DHT22;8192;53.596;10.166;2022-11-15T07:47:45;6.20;99.90
16172;DHT22;8192;53.596;10.166;2022-11-15T07:50:13;6.20;99.90
16172;DHT22;8192;53.596;10.166;2022-11-15T07:52:40;6.20;99.90
16172;DHT22;8192;53.596;10.166;2022-11-15T07:55:08;6.20;99.90
16172;DHT22;8192;53.596;10.166;2022-11-15T07:57:35;6.20;99.90
16172;DHT22;8192;53.596;10.166;2022-11-15T08:00:03;6.20;99.90
16172;DHT22;8192;53.596;10.166;2022-11-15T08:02:34;6.20;99.90
16172;DHT22;8192;53.596;10.166;2022-11-15T08:05:03;6.20;99.90
16172;DHT22;8192;53.596;10.166;2022-11-15T08:07:31;6.30;99.90
16172;DHT22;8192;53.596;10.166;2022-11-15T08:09:58;6.30;99.90
16172;DHT22;8192;53.596;10.166;2022-11-15T08:12:26;6.30;99.90
16172;DHT22;8192;53.596;10.166;2022-11-15T08:14:54;6.40;99.90
16172;DHT22;8192;53.596;10.166;2022-11-15T08:17:22;6.40;99.90
16172;DHT22;8192;53.596;10.166;2022-11-15T08:19:52;6.50;99.90
16172;DHT22;8192;53.596;10.166;2022-11-15T08:22:37;6.50;99.90
16172;DHT22;8192;53.596;10.166;2022-11-15T08:25:05;6.60;99.90
16172;DHT22;8192;53.596;10.166;2022-11-15T08:27:32;6.60;99.90
16172;DHT22;8192;53.596;10.166;2022-11-15T08:32:28;6.60;99.90
16172;DHT22;8192;53.596;10.166;2022-11-15T08:34:57;6.50;99.90
16172;DHT22;8192;53.596;10.166;2022-11-15T08:37:24;6.60;99.90
16172;DHT22;8192;53.596;10.166;2022-11-15T08:39:51;6.60;99.90
16172;DHT22;8192;53.596;10.166;2022-11-15T08:42:18;6.50;99.90
16172;DHT22;8192;53.596;10.166;2022-11-15T08:44:45;6.60;99.90
16172;DHT22;8192;53.596;10.166;2022-11-15T08:47:13;6.60;99.90
16172;DHT22;8192;53.596;10.166;2022-11-15T08:49:40;6.60;99.90
16172;DHT22;8192;53.596;10.166;2022-11-15T08:52:09;6.70;99.90
16172;DHT22;8192;53.596;10.166;2022-11-15T08:54:36;6.70;99.90
16172;DHT22;8192;53.596;10.166;2022-11-15T08:59:30;6.80;99.90
16172;DHT22;8192;53.596;10.166;2022-11-15T09:04:26;6.80;99.90
16172;DHT22;8192;53.596;10.166;2022-11-15T09:06:54;6.80;99.90
16172;DHT22;8192;53.596;10.166;2022-11-15T09:09:24;6.90;99.90
16172;DHT22;8192;53.596;10.166;2022-11-15T09:11:51;6.90;99.90
16172;DHT22;8192;53.596;10.166;2022-11-15T09:14:19;7.00;99.90
16172;DHT22;8192;53.596;10.166;2022-11-15T09:16:46;7.00;99.90
16172;DHT22;8192;53.596;10.166;2022-11-15T09:19:13;7.10;99.90
16172;DHT22;8192;53.596;10.166;2022-11-15T09:21:41;7.20;99.90
16172;DHT22;8192;53.596;10.166;2022-11-15T09:24:08;7.30;99.90
16172;DHT22;8192;53.596;10.166;2022-11-15T09:26:37;7.30;99.90
16172;DHT22;8192;53.596;10.166;2022-11-15T09:29:06;7.50;99.90
16172;DHT22;8192;53.596;10.166;2022-11-15T09:31:33;7.50;99.90
16172;DHT22;8192;53.596;10.166;2022-11-15T09:34:06;7.50;99.90
16172;DHT22;8192;53.596;10.166;2022-11-15T09:36:33;7.60;99.90
16172;DHT22;8192;53.596;10.166;2022-11-15T09:39:01;7.80;99.90
16172;DHT22;8192;53.596;10.166;2022-11-15T09:44:30;7.80;99.90
16172;DHT22;8192;53.596;10.166;2022-11-15T09:47:06;7.80;99.90
16172;DHT22;8192;53.596;10.166;2022-11-15T09:49:43;7.70;99.90
16172;DHT22;8192;53.596;10.166;2022-11-15T09:52:11;7.90;99.90
16172;DHT22;8192;53.596;10.166;2022-11-15T09:54:39;7.90;99.90
16172;DHT22;8192;53.596;10.166;2022-11-15T09:58:57;8.00;99.90
16172;DHT22;8192;53.596;10.166;2022-11-15T10:01:36;8.10;99.90
16172;DHT22;8192;53.596;10.166;2022-11-15T10:04:06;8.20;99.90
16172;DHT22;8192;53.596;10.166;2022-11-15T10:06:36;8.30;99.90
16172;DHT22;8192;53.596;10.166;2022-11-15T10:09:12;8.50;99.90
16172;DHT22;8192;53.596;10.166;2022-11-15T10:11:51;8.60;99.90
16172;DHT22;8192;53.596;10.166;2022-11-15T10:14:22;8.70;99.90
16172;DHT22;8192;53.596;10.166;2022-11-15T10:17:13;8.90;99.90
16172;DHT22;8192;53.596;10.166;2022-11-15T10:19:52;9.00;99.90
16172;DHT22;8192;53.596;10.166;2022-11-15T10:22:28;9.20;99.90
16172;DHT22;8192;53.596;10.166;2022-11-15T10:25:09;9.40;99.90
16172;DHT22;8192;53.596;10.166;2022-11-15T10:27:39;9.50;99.90
16172;DHT22;8192;53.596;10.166;2022-11-15T10:30:12;9.50;99.90
16172;DHT22;8192;53.596;10.166;2022-11-15T10:32:42;9.50;99.90
16172;DHT22;8192;53.596;10.166;2022-11-15T10:35:19;9.50;99.90
16172;DHT22;8192;53.596;10.166;2022-11-15T10:37:47;9.40;99.90
16172;DHT22;8192;53.596;10.166;2022-11-15T10:40:18;9.50;99.90
16172;DHT22;8192;53.596;10.166;2022-11-15T10:42:45;9.40;99.90
16172;DHT22;8192;53.596;10.166;2022-11-15T10:45:37;9.40;99.90
16172;DHT22;8192;53.596;10.166;2022-11-15T10:48:22;9.40;99.90
16172;DHT22;8192;53.596;10.166;2022-11-15T10:50:52;9.40;99.90
16172;DHT22;8192;53.596;10.166;2022-11-15T10:53:29;9.40;99.90
16172;DHT22;8192;53.596;10.166;2022-11-15T10:56:02;9.50;99.90
16172;DHT22;8192;53.596;10.166;2022-11-15T10:58:34;9.40;99.90
16172;DHT22;8192;53.596;10.166;2022-11-15T11:01:15;9.50;99.90
16172;DHT22;8192;53.596;10.166;2022-11-15T11:03:44;9.40;99.90
16172;DHT22;8192;53.596;10.166;2022-11-15T11:06:13;9.40;99.90
16172;DHT22;8192;53.596;10.166;2022-11-15T11:08:54;9.40;99.90
16172;DHT22;8192;53.596;10.166;2022-11-15T11:11:22;9.50;99.90
16172;DHT22;8192;53.596;10.166;2022-11-15T11:13:49;9.50;99.90
16172;DHT22;8192;53.596;10.166;2022-11-15T11:16:36;9.50;99.90
16172;DHT22;8192;53.596;10.166;2022-11-15T11:19:25;9.60;99.90
16172;DHT22;8192;53.596;10.166;2022-11-15T11:21:59;9.60;99.90
16172;DHT22;8192;53.596;10.166;2022-11-15T11:24:34;9.60;99.90
16172;DHT22;8192;53.596;10.166;2022-11-15T11:27:14;9.60;99.90
16172;DHT22;8192;53.596;10.166;2022-11-15T11:29:54;9.70;99.90
16172;DHT22;8192;53.596;10.166;2022-11-15T11:32:56;9.80;99.90
16172;DHT22;8192;53.596;10.166;2022-11-15T11:35:30;9.90;99.90
16172;DHT22;8192;53.596;10.166;2022-11-15T11:38:11;10.00;99.90
16172;DHT22;8192;53.596;10.166;2022-11-15T11:47:01;10.10;99.90
16172;DHT22;8192;53.596;10.166;2022-11-15T11:49:41;10.20;99.90
16172;DHT22;8192;53.596;10.166;2022-11-15T11:52:14;10.10;99.90
16172;DHT22;8192;53.596;10.166;2022-11-15T11:54:52;10.20;99.90
16172;DHT22;8192;53.596;10.166;2022-11-15T11:57:32;10.30;99.90
16172;DHT22;8192;53.596;10.166;2022-11-15T12:00:03;10.40;99.90
16172;DHT22;8192;53.596;10.166;2022-11-15T12:05:44;10.10;99.90
16172;DHT22;8192;53.596;10.166;2022-11-15T12:08:31;10.40;99.90
16172;DHT22;8192;53.596;10.166;2022-11-15T12:11:07;10.40;99.90
16172;DHT22;8192;53.596;10.166;2022-11-15T12:13:35;10.40;99.90
16172;DHT22;8192;53.596;10.166;2022-11-15T12:16:14;10.50;99.90
16172;DHT22;8192;53.596;10.166;2022-11-15T12:19:07;10.60;99.90
16172;DHT22;8192;53.596;10.166;2022-11-15T12:21:54;10.60;99.90
16172;DHT22;8192;53.596;10.166;2022-11-15T12:24:31;10.60;99.90
16172;DHT22;8192;53.596;10.166;2022-11-15T12:27:07;10.60;99.90
16172;DHT22;8192;53.596;10.166;2022-11-15T12:29:43;10.60;99.90
16172;DHT22;8192;53.596;10.166;2022-11-15T12:32:24;10.70;99.90
16172;DHT22;8192;53.596;10.166;2022-11-15T12:34:57;10.80;99.90
16172;DHT22;8192;53.596;10.166;2022-11-15T12:41:13;10.90;99.90
16172;DHT22;8192;53.596;10.166;2022-11-15T12:43:43;10.90;99.90
16172;DHT22;8192;53.596;10.166;2022-11-15T12:46:13;10.90;99.90
16172;DHT22;8192;53.596;10.166;2022-11-15T12:48:54;10.90;99.90
16172;DHT22;8192;53.596;10.166;2022-11-15T12:52:05;10.90;99.90
16172;DHT22;8192;53.596;10.166;2022-11-15T12:54:59;11.00;99.90
16172;DHT22;8192;53.596;10.166;2022-11-15T12:57:55;11.10;99.90
16172;DHT22;8192;53.596;10.166;2022-11-15T13:00:45;11.20;99.90
16172;DHT22;8192;53.596;10.166;2022-11-15T13:06:06;11.10;99.90
16172;DHT22;8192;53.596;10.166;2022-11-15T13:11:57;11.00;99.90
16172;DHT22;8192;53.596;10.166;2022-11-15T13:14:55;11.00;99.90
16172;DHT22;8192;53.596;10.166;2022-11-15T13:17:35;10.90;99.90
16172;DHT22;8192;53.596;10.166;2022-11-15T13:20:22;10.90;99.90
16172;DHT22;8192;53.596;10.166;2022-11-15T13:22:51;10.90;99.90
16172;DHT22;8192;53.596;10.166;2022-11-15T13:26:07;10.90;99.90
16172;DHT22;8192;53.596;10.166;2022-11-15T13:28:52;10.90;99.90
16172;DHT22;8192;53.596;10.166;2022-11-15T13:31:42;10.90;99.90
16172;DHT22;8192;53.596;10.166;2022-11-15T13:34:25;10.80;99.90
16172;DHT22;8192;53.596;10.166;2022-11-15T13:36:53;10.80;99.90
16172;DHT22;8192;53.596;10.166;2022-11-15T13:39:35;10.80;99.90
16172;DHT22;8192;53.596;10.166;2022-11-15T13:42:04;10.90;99.90
16172;DHT22;8192;53.596;10.166;2022-11-15T13:44:40;10.90;99.90
16172;DHT22;8192;53.596;10.166;2022-11-15T13:47:40;10.90;99.90
16172;DHT22;8192;53.596;10.166;2022-11-15T13:50:11;10.90;99.90
16172;DHT22;8192;53.596;10.166;2022-11-15T13:52:41;10.80;99.90
16172;DHT22;8192;53.596;10.166;2022-11-15T13:55:12;10.80;99.90
16172;DHT22;8192;53.596;10.166;2022-11-15T14:01:49;10.70;99.90
16172;DHT22;8192;53.596;10.166;2022-11-15T14:04:36;10.70;99.90
16172;DHT22;8192;53.596;10.166;2022-11-15T14:07:16;10.80;99.90
16172;DHT22;8192;53.596;10.166;2022-11-15T14:13:27;10.80;99.90
16172;DHT22;8192;53.596;10.166;2022-11-15T14:16:17;10.80;99.90
16172;DHT22;8192;53.596;10.166;2022-11-15T14:19:03;10.80;99.90
16172;DHT22;8192;53.596;10.166;2022-11-15T14:22:25;10.80;99.90
16172;DHT22;8192;53.596;10.166;2022-11-15T14:28:29;10.80;99.90
16172;DHT22;8192;53.596;10.166;2022-11-15T14:30:59;10.80;99.90
16172;DHT22;8192;53.596;10.166;2022-11-15T14:33:29;10.80;99.90
16172;DHT22;8192;53.596;10.166;2022-11-15T14:35:58;10.70;99.90
16172;DHT22;8192;53.596;10.166;2022-11-15T14:38:27;10.70;99.90
16172;DHT22;8192;53.596;10.166;2022-11-15T14:40:57;10.70;99.90
16172;DHT22;8192;53.596;10.166;2022-11-15T14:43:37;10.70;99.90
16172;DHT22;8192;53.596;10.166;2022-11-15T14:46:05;10.70;99.90
16172;DHT22;8192;53.596;10.166;2022-11-15T14:48:32;11.10;99.90
16172;DHT22;8192;53.596;10.166;2022-11-15T14:51:00;10.60;99.90
16172;DHT22;8192;53.596;10.166;2022-11-15T14:53:29;10.60;99.90
16172;DHT22;8192;53.596;10.166;2022-11-15T14:55:56;10.60;99.90
16172;DHT22;8192;53.596;10.166;2022-11-15T14:58:24;10.50;99.90
16172;DHT22;8192;53.596;10.166;2022-11-15T15:00:50;10.50;99.90
16172;DHT22;8192;53.596;10.166;2022-11-15T15:03:18;10.40;99.90
16172;DHT22;8192;53.596;10.166;2022-11-15T15:05:46;10.30;99.90
16172;DHT22;8192;53.596;10.166;2022-11-15T15:08:13;10.40;99.90
16172;DHT22;8192;53.596;10.166;2022-11-15T15:10:43;10.30;99.90
16172;DHT22;8192;53.596;10.166;2022-11-15T15:13:18;10.20;99.90
16172;DHT22;8192;53.596;10.166;2022-11-15T15:15:47;10.10;99.90
16172;DHT22;8192;53.596;10.166;2022-11-15T15:18:15;10.10;99.90
16172;DHT22;8192;53.596;10.166;2022-11-15T15:20:44;10.00;99.90
16172;DHT22;8192;53.596;10.166;2022-11-15T15:23:15;10.00;99.90
16172;DHT22;8192;53.596;10.166;2022-11-15T15:25:45;9.90;99.90
16172;DHT22;8192;53.596;10.166;2022-11-15T15:28:14;9.90;99.90
16172;DHT22;8192;53.596;10.166;2022-11-15T15:30:41;9.80;99.90
16172;DHT22;8192;53.596;10.166;2022-11-15T15:33:27;9.70;99.90
16172;DHT22;8192;53.596;10.166;2022-11-15T15:35:54;9.60;99.90
16172;DHT22;8192;53.596;10.166;2022-11-15T15:38:22;9.60;99.90
16172;DHT22;8192;53.596;10.166;2022-11-15T15:40:55;9.60;99.90
16172;DHT22;8192;53.596;10.166;2022-11-15T15:43:22;9.60;99.90
16172;DHT22;8192;53.596;10.166;2022-11-15T15:48:57;9.60;99.90
16172;DHT22;8192;53.596;10.166;2022-11-15T15:51:24;9.50;99.90
16172;DHT22;8192;53.596;10.166;2022-11-15T15:54:04;9.50;99.90
16172;DHT22;8192;53.596;10.166;2022-11-15T15:56:36;9.60;99.90
16172;DHT22;8192;53.596;10.166;2022-11-15T15:59:03;9.60;99.90
16172;DHT22;8192;53.596;10.166;2022-11-15T16:01:30;9.60;99.90
16172;DHT22;8192;53.596;10.166;2022-11-15T16:03:57;9.60;99.90
16172;DHT22;8192;53.596;10.166;2022-11-15T16:06:34;9.60;99.90
16172;DHT22;8192;53.596;10.166;2022-11-15T16:09:03;9.50;99.90
16172;DHT22;8192;53.596;10.166;2022-11-15T16:11:30;9.50;99.90
16172;DHT22;8192;53.596;10.166;2022-11-15T16:13:59;9.50;99.90
16172;DHT22;8192;53.596;10.166;2022-11-15T16:16:30;9.50;99.90
16172;DHT22;8192;53.596;10.166;2022-11-15T16:18:59;9.40;99.90
16172;DHT22;8192;53.596;10.166;2022-11-15T16:21:27;9.40;99.90
16172;DHT22;8192;53.596;10.166;2022-11-15T16:23:54;9.40;99.90
16172;DHT22;8192;53.596;10.166;2022-11-15T16:26:25;9.30;99.90
16172;DHT22;8192;53.596;10.166;2022-11-15T16:28:53;9.40;99.90
16172;DHT22;8192;53.596;10.166;2022-11-15T16:31:23;9.30;99.90
16172;DHT22;8192;53.596;10.166;2022-11-15T16:33:50;9.40;99.90
16172;DHT22;8192;53.596;10.166;2022-11-15T16:36:21;9.50;99.90
16172;DHT22;8192;53.596;10.166;2022-11-15T16:38:50;9.50;99.90
16172;DHT22;8192;53.596;10.166;2022-11-15T16:41:18;9.50;99.90
16172;DHT22;8192;53.596;10.166;2022-11-15T16:43:46;9.60;99.90
16172;DHT22;8192;53.596;10.166;2022-11-15T16:46:15;9.50;99.90
16172;DHT22;8192;53.596;10.166;2022-11-15T16:48:45;9.50;99.90
16172;DHT22;8192;53.596;10.166;2022-11-15T16:51:13;9.40;99.90
16172;DHT22;8192;53.596;10.166;2022-11-15T16:53:41;9.40;99.90
16172;DHT22;8192;53.596;10.166;2022-11-15T16:56:19;9.40;99.90
16172;DHT22;8192;53.596;10.166;2022-11-15T16:58:46;9.50;99.90
16172;DHT22;8192;53.596;10.166;2022-11-15T17:01:17;9.50;99.90
16172;DHT22;8192;53.596;10.166;2022-11-15T17:03:47;9.50;99.90
16172;DHT22;8192;53.596;10.166;2022-11-15T17:06:14;9.60;99.90
16172;DHT22;8192;53.596;10.166;2022-11-15T17:08:43;9.60;99.90
16172;DHT22;8192;53.596;10.166;2022-11-15T17:11:13;9.60;99.90
16172;DHT22;8192;53.596;10.166;2022-11-15T17:13:41;9.70;99.90
16172;DHT22;8192;53.596;10.166;2022-11-15T17:16:09;9.60;99.90
16172;DHT22;8192;53.596;10.166;2022-11-15T17:18:38;9.60;99.90
16172;DHT22;8192;53.596;10.166;2022-11-15T17:21:11;9.60;99.90
16172;DHT22;8192;53.596;10.166;2022-11-15T17:23:38;9.60;99.90
16172;DHT22;8192;53.596;10.166;2022-11-15T17:26:06;9.60;99.90
16172;DHT22;8192;53.596;10.166;2022-11-15T17:28:34;9.60;99.90
16172;DHT22;8192;53.596;10.166;2022-11-15T17:31:01;9.60;99.90